createdAt,value
2023-01-12T00:01:09.371Z,6.47
2023-01-12T00:16:11.785Z,6.31
2023-01-12T00:31:14.293Z,6.47
2023-01-12T00:46:18.248Z,6.29
2023-01-12T01:01:20.760Z,5.73
2023-01-12T01:16:23.212Z,5.77
2023-01-12T01:31:26.145Z,5.83
2023-01-12T01:46:28.673Z,5.69
2023-01-12T02:01:31.115Z,5.84
2023-01-12T02:16:33.564Z,5.78
2023-01-12T02:31:35.959Z,5.66
2023-01-12T02:46:38.604Z,4.58
2023-01-12T03:01:41.128Z,5.6
2023-01-12T03:16:43.466Z,5.36
2023-01-12T03:31:45.885Z,5.52
2023-01-12T03:46:48.361Z,5.24
2023-01-12T04:01:50.629Z,4.83
2023-01-12T04:16:53.039Z,5.49
2023-01-12T04:31:55.834Z,5.65
2023-01-12T04:46:58.153Z,5.55
2023-01-12T05:02:01.080Z,5.55
2023-01-12T05:17:03.521Z,5.34
2023-01-12T05:32:05.863Z,5.09
2023-01-12T05:47:08.290Z,5.42
2023-01-12T06:02:10.598Z,5.44
2023-01-12T06:17:12.911Z,5.41
2023-01-12T06:32:15.197Z,5.19
2023-01-12T06:47:17.546Z,4.77
2023-01-12T07:02:19.951Z,4.84
2023-01-12T07:17:22.304Z,4.63
2023-01-12T07:32:24.586Z,5.22
2023-01-12T07:47:26.928Z,5.21
2023-01-12T08:02:29.237Z,5.52
2023-01-12T08:17:31.659Z,5.39
2023-01-12T08:32:34.021Z,5.21
2023-01-12T08:47:36.367Z,5.26
2023-01-12T09:02:38.693Z,5.18
2023-01-12T09:17:41.036Z,5.18
2023-01-12T09:32:43.389Z,5.34
2023-01-12T09:47:45.759Z,5.29
2023-01-12T10:02:48.153Z,4.98
2023-01-12T10:17:51.672Z,5.2
2023-01-12T10:32:54.454Z,5.25
2023-01-12T10:47:56.786Z,5.57
2023-01-12T11:02:59.263Z,4.83
2023-01-12T11:18:01.797Z,5.08
2023-01-12T11:33:04.087Z,5.33
2023-01-12T11:48:06.389Z,4.96
2023-01-12T12:03:08.716Z,4.92
2023-01-12T12:18:11.172Z,5.29
2023-01-12T12:33:13.539Z,5.33
2023-01-12T12:48:17.363Z,5.06
2023-01-12T13:03:19.689Z,5.36
2023-01-12T13:18:22.102Z,4.55
2023-01-12T13:33:24.609Z,5.21
2023-01-12T13:48:27.179Z,5.03
2023-01-12T14:03:29.654Z,5.28
2023-01-12T14:18:32.041Z,5.54
2023-01-12T14:33:34.361Z,5.23
2023-01-12T14:48:36.679Z,5.32
2023-01-12T15:03:43.672Z,5.3
2023-01-12T15:18:46.648Z,5.09
2023-01-12T15:33:48.965Z,4.65
2023-01-12T15:48:51.319Z,4.41
2023-01-12T16:04:24.958Z,5.11
2023-01-12T16:19:42.590Z,4.46
2023-01-12T16:34:44.926Z,4.83
2023-01-12T16:49:47.330Z,5
2023-01-12T17:04:49.710Z,5.2
2023-01-12T17:19:52.162Z,4.96
2023-01-12T17:34:55.040Z,5.06
2023-01-12T17:49:57.151Z,5.32
2023-01-12T18:04:59.601Z,5.56
2023-01-12T18:20:01.876Z,5.54
2023-01-12T18:35:04.171Z,5.59
2023-01-12T18:50:06.831Z,5.48
2023-01-12T19:05:09.239Z,5.22
2023-01-12T19:20:11.578Z,4.81
2023-01-12T19:35:13.892Z,5.32
2023-01-12T19:50:16.542Z,5.45
2023-01-12T20:05:19.001Z,5.66
2023-01-12T20:20:21.346Z,5.5
2023-01-12T20:35:23.700Z,5.51
2023-01-12T20:50:26.099Z,5.65
2023-01-12T21:05:28.645Z,5.69
2023-01-12T21:20:30.967Z,5.6
2023-01-12T21:35:33.349Z,5.09
2023-01-12T21:50:35.628Z,5.57
2023-01-12T22:05:38.060Z,5.35
2023-01-12T22:20:40.648Z,5.48
2023-01-12T22:35:43.102Z,5.58
2023-01-12T22:50:45.447Z,5.72
2023-01-12T23:05:47.878Z,5.83
2023-01-12T23:20:50.217Z,5.35
2023-01-12T23:35:52.528Z,5.73
2023-01-12T23:50:54.994Z,5.43
